Temp: 12.3°C   Baro: 997.2mb
  Wind: 6.0mph   Dir: SSW (205°)
  Rain: 4.6mm (0.0mm/hr)
  Solar: 53W/m2  Hum: 88%
 
Bath Spa Weather Historical Data
Daily Summary for October 27, 2019 Units:  Both    English   Metric
Next Day »
Daily Weekly Monthly Yearly Custom
  High: Low: Average:
Temperature: 54.3 °F /  12.4 °C 35.8 °F /  2.1 °C 42.6 °F /  5.9 °C
Dew Point: 44.8 °F /  7.1 °C 34.3 °F /  1.3 °C 39 °F /  3.9 °C
Humidity: 96% 65% 88%
Wind Speed: 6.9mph /  11.1km/h - 0.6mph /  1km/h
Wind Gust: 9mph /  14.5km/h - -
Wind direction- - SSW
Pressure: 30.3 in /  1026.6 hPa 30.1 in /  1017.8 hPa -
Precipitation: 0.01 in /  0.3 mm    
Historical Graphs
 
 
Tabular Data for October 27, 2019
Time Temperature Dew Point Pressure Wind direction Wind Speed Wind Gust Humidity Rainfall Rate (Hourly) solar
00:00 42.6 °F /  5.9 °C 41 °F /  5.0 °C 30.1in /  1017.8hPa Calm     94% 0in /  0.0mm 0.00 W/m2
00:05 42.6 °F /  5.9 °C 41 °F /  5.0 °C 30.1in /  1018.2hPa Calm     94% 0in /  0.0mm 0.00 W/m2
00:10 42.6 °F /  5.9 °C 41 °F /  5.0 °C 30.1in /  1018.2hPa Calm     94% 0in /  0.0mm 0.00 W/m2
00:15 42.6 °F /  5.9 °C 41 °F /  5.0 °C 30.1in /  1018.2hPa Calm     94% 0in /  0.0mm 0.00 W/m2
00:20 42.4 °F /  5.8 °C 40.8 °F /  4.9 °C 30.1in /  1018.2hPa Calm     94% 0in /  0.0mm 0.00 W/m2
00:25 42.4 °F /  5.8 °C 40.8 °F /  4.9 °C 30.1in /  1018.2hPa Calm     94% 0in /  0.0mm 0.00 W/m2
00:30 42.6 °F /  5.9 °C 41 °F /  5.0 °C 30.1in /  1018.2hPa Calm     94% 0in /  0.0mm 0.00 W/m2
00:35 42.4 °F /  5.8 °C 40.8 °F /  4.9 °C 30.1in /  1018.5hPa Calm     94% 0in /  0.0mm 0.00 W/m2
00:40 42.4 °F /  5.8 °C 40.8 °F /  4.9 °C 30.1in /  1018.5hPa Calm     94% 0in /  0.0mm 0.00 W/m2
00:45 42.4 °F /  5.8 °C 40.8 °F /  4.9 °C 30.1in /  1018.8hPa Calm     94% 0in /  0.0mm 0.00 W/m2
00:50 42.3 °F /  5.7 °C 40.6 °F /  4.8 °C 30.1in /  1018.8hPa Calm     94% 0in /  0.0mm 0.00 W/m2
00:55 42.1 °F /  5.6 °C 40.5 °F /  4.7 °C 30.1in /  1018.8hPa Calm     94% 0in /  0.0mm 0.00 W/m2
01:00 42.1 °F /  5.6 °C 40.5 °F /  4.7 °C 30.1in /  1018.8hPa Calm     94% 0in /  0.0mm 0.00 W/m2
01:05 41.9 °F /  5.5 °C 40.3 °F /  4.6 °C 30.1in /  1019.2hPa Calm     94% 0in /  0.0mm 0.00 W/m2
01:10 41.9 °F /  5.5 °C 40.3 °F /  4.6 °C 30.1in /  1019.2hPa Calm     94% 0in /  0.0mm 0.00 W/m2
01:15 41.7 °F /  5.4 °C 40.1 °F /  4.5 °C 30.1in /  1019.2hPa Calm     94% 0in /  0.0mm 0.00 W/m2
01:20 41.7 °F /  5.4 °C 40.5 °F /  4.7 °C 30.1in /  1019.5hPa Calm     95% 0in /  0.0mm 0.00 W/m2
01:25 41.5 °F /  5.3 °C 40.3 °F /  4.6 °C 30.1in /  1019.5hPa Calm     95% 0in /  0.0mm 0.00 W/m2
01:30 41.4 °F /  5.2 °C 39.7 °F /  4.3 °C 30.1in /  1019.5hPa Calm     94% 0in /  0.0mm 0.00 W/m2
01:35 41.2 °F /  5.1 °C 39.6 °F /  4.2 °C 30.1in /  1019.5hPa Calm     94% 0in /  0.0mm 0.00 W/m2
01:40 41 °F /  5.0 °C 39.7 °F /  4.3 °C 30.1in /  1019.5hPa Calm     95% 0in /  0.0mm 0.00 W/m2
01:45 41 °F /  5.0 °C 39.7 °F /  4.3 °C 30.1in /  1019.5hPa Calm     95% 0in /  0.0mm 0.00 W/m2
01:50 40.6 °F /  4.8 °C 39.4 °F /  4.1 °C 30.1in /  1019.5hPa Calm     95% 0in /  0.0mm 0.00 W/m2
01:55 40.5 °F /  4.7 °C 39.2 °F /  4.0 °C 30.1in /  1019.5hPa Calm     95% 0in /  0.0mm 0.00 W/m2
01:00 40.3 °F /  4.6 °C 39 °F /  3.9 °C 30.1in /  1019.5hPa Calm     95% 0in /  0.0mm 0.00 W/m2
01:05 40.3 °F /  4.6 °C 38.7 °F /  3.7 °C 30.1in /  1019.9hPa Calm     94% 0in /  0.0mm 0.00 W/m2
01:10 40.1 °F /  4.5 °C 38.8 °F /  3.8 °C 30.1in /  1019.9hPa Calm     95% 0in /  0.0mm 0.00 W/m2
01:15 39.9 °F /  4.4 °C 38.7 °F /  3.7 °C 30.1in /  1020.2hPa Calm     95% 0in /  0.0mm 0.00 W/m2
01:20 39.7 °F /  4.3 °C 38.5 °F /  3.6 °C 30.1in /  1020.2hPa Calm     95% 0in /  0.0mm 0.00 W/m2
01:25 39.7 °F /  4.3 °C 38.5 °F /  3.6 °C 30.1in /  1020.2hPa Calm     95% 0in /  0.0mm 0.00 W/m2
01:30 39.7 °F /  4.3 °C 38.5 °F /  3.6 °C 30.1in /  1020.2hPa Calm     95% 0in /  0.0mm 0.00 W/m2
01:35 39.6 °F /  4.2 °C 38.3 °F /  3.5 °C 30.1in /  1020.2hPa Calm     95% 0in /  0.0mm 0.00 W/m2
01:40 39.6 °F /  4.2 °C 38.3 °F /  3.5 °C 30.1in /  1020.2hPa Calm     95% 0in /  0.0mm 0.00 W/m2
01:45 39.6 °F /  4.2 °C 38.3 °F /  3.5 °C 30.1in /  1020.2hPa Calm     95% 0in /  0.0mm 0.00 W/m2
01:50 39.6 °F /  4.2 °C 38.3 °F /  3.5 °C 30.1in /  1020.2hPa Calm     95% 0in /  0.0mm 0.00 W/m2
01:55 39.6 °F /  4.2 °C 38.3 °F /  3.5 °C 30.1in /  1020.2hPa Calm     95% 0in /  0.0mm 0.00 W/m2
02:00 39.4 °F /  4.1 °C 38.1 °F /  3.4 °C 30.1in /  1020.2hPa Calm     95% 0in /  0.0mm 0.00 W/m2
02:05 39.4 °F /  4.1 °C 38.1 °F /  3.4 °C 30.1in /  1020.2hPa Calm     95% 0in /  0.0mm 0.00 W/m2
02:10 39.4 °F /  4.1 °C 38.1 °F /  3.4 °C 30.1in /  1020.2hPa Calm     95% 0in /  0.0mm 0.00 W/m2
02:15 39.2 °F /  4.0 °C 37.9 °F /  3.3 °C 30.1in /  1020.2hPa Calm     95% 0in /  0.0mm 0.00 W/m2
02:20 38.8 °F /  3.8 °C 37.6 °F /  3.1 °C 30.1in /  1020.2hPa Calm     95% 0in /  0.0mm 0.00 W/m2
02:25 38.7 °F /  3.7 °C 37.4 °F /  3.0 °C 30.1in /  1020.2hPa Calm     95% 0in /  0.0mm 0.00 W/m2
02:30 38.8 °F /  3.8 °C 37.6 °F /  3.1 °C 30.1in /  1019.9hPa Calm     95% 0in /  0.0mm 0.00 W/m2
02:35 39 °F /  3.9 °C 37.8 °F /  3.2 °C 30.1in /  1020.2hPa Calm     95% 0in /  0.0mm 0.00 W/m2
02:40 39 °F /  3.9 °C 37.8 °F /  3.2 °C 30.1in /  1020.2hPa Calm     95% 0in /  0.0mm 0.00 W/m2
02:45 38.8 °F /  3.8 °C 37.6 °F /  3.1 °C 30.1in /  1020.2hPa Calm     95% 0in /  0.0mm 0.00 W/m2
02:50 38.7 °F /  3.7 °C 37.4 °F /  3.0 °C 30.1in /  1020.2hPa Calm     95% 0in /  0.0mm 0.00 W/m2
02:55 38.5 °F /  3.6 °C 37.2 °F /  2.9 °C 30.1in /  1020.2hPa Calm     95% 0in /  0.0mm 0.00 W/m2
03:00 38.3 °F /  3.5 °C 37 °F /  2.8 °C 30.1in /  1020.2hPa Calm     95% 0in /  0.0mm 0.00 W/m2
03:05 38.5 °F /  3.6 °C 37.2 °F /  2.9 °C 30.1in /  1020.2hPa Calm     95% 0in /  0.0mm 0.00 W/m2
03:10 38.5 °F /  3.6 °C 37.2 °F /  2.9 °C 30.1in /  1020.5hPa Calm     95% 0in /  0.0mm 0.00 W/m2
03:15 38.3 °F /  3.5 °C 37 °F /  2.8 °C 30.1in /  1020.5hPa Calm     95% 0in /  0.0mm 0.00 W/m2
03:20 38.1 °F /  3.4 °C 36.9 °F /  2.7 °C 30.1in /  1020.5hPa Calm     95% 0in /  0.0mm 0.00 W/m2
03:25 38.1 °F /  3.4 °C 36.9 °F /  2.7 °C 30.1in /  1020.5hPa Calm     95% 0in /  0.0mm 0.00 W/m2
03:30 38.1 °F /  3.4 °C 36.9 °F /  2.7 °C 30.1in /  1020.5hPa Calm     95% 0in /  0.0mm 0.00 W/m2
03:35 38.5 °F /  3.6 °C 37.2 °F /  2.9 °C 30.1in /  1020.5hPa WNW 2mph /  3.2km/h 3mph /  4.8km/h 95% 0.01in /  0.3mm 0.00 W/m2
03:40 38.5 °F /  3.6 °C 37.2 °F /  2.9 °C 30.1in /  1020.5hPa Calm   1mph /  1.6km/h 95% 0.01in /  0.3mm 0.00 W/m2
03:45 38.3 °F /  3.5 °C 37 °F /  2.8 °C 30.1in /  1020.5hPa Calm     95% 0.01in /  0.3mm 0.00 W/m2
03:50 38.3 °F /  3.5 °C 37 °F /  2.8 °C 30.1in /  1020.5hPa Calm     95% 0.01in /  0.3mm 0.00 W/m2
03:55 38.3 °F /  3.5 °C 37 °F /  2.8 °C 30.2in /  1020.9hPa Calm     95% 0.01in /  0.3mm 0.00 W/m2
04:00 38.5 °F /  3.6 °C 37.2 °F /  2.9 °C 30.2in /  1020.9hPa Calm     95% 0.01in /  0.3mm 0.00 W/m2
04:05 38.3 °F /  3.5 °C 37 °F /  2.8 °C 30.2in /  1020.9hPa Calm     95% 0.01in /  0.3mm 0.00 W/m2
04:10 37.9 °F /  3.3 °C 36.7 °F /  2.6 °C 30.2in /  1020.9hPa Calm     95% 0.01in /  0.3mm 0.00 W/m2
04:15 37.9 °F /  3.3 °C 36.7 °F /  2.6 °C 30.2in /  1021.2hPa Calm     95% 0.01in /  0.3mm 0.00 W/m2
04:20 37.8 °F /  3.2 °C 36.5 °F /  2.5 °C 30.2in /  1021.2hPa Calm   1mph /  1.6km/h 95% 0.01in /  0.3mm 0.00 W/m2
04:25 37.8 °F /  3.2 °C 36.5 °F /  2.5 °C 30.2in /  1021.2hPa Calm   2mph /  3.2km/h 95% 0.01in /  0.3mm 0.00 W/m2
04:30 37.6 °F /  3.1 °C 36.3 °F /  2.4 °C 30.2in /  1021.2hPa Calm     95% 0.01in /  0.3mm 0.00 W/m2
04:35 37.6 °F /  3.1 °C 36.3 °F /  2.4 °C 30.2in /  1021.2hPa Calm     95% 0in /  0.0mm 0.00 W/m2
04:40 37.6 °F /  3.1 °C 36.3 °F /  2.4 °C 30.2in /  1021.2hPa Calm     95% 0in /  0.0mm 0.00 W/m2
04:45 37.6 °F /  3.1 °C 36.3 °F /  2.4 °C 30.2in /  1021.6hPa Calm   1mph /  1.6km/h 95% 0in /  0.0mm 0.00 W/m2
04:50 37.6 °F /  3.1 °C 36.3 °F /  2.4 °C 30.2in /  1021.6hPa Calm     95% 0in /  0.0mm 0.00 W/m2
04:55 37.6 °F /  3.1 °C 36.3 °F /  2.4 °C 30.2in /  1021.6hPa Calm     95% 0in /  0.0mm 0.00 W/m2
05:00 37.4 °F /  3.0 °C 36.1 °F /  2.3 °C 30.2in /  1021.6hPa Calm     95% 0in /  0.0mm 0.00 W/m2
05:05 37.4 °F /  3.0 °C 36.1 °F /  2.3 °C 30.2in /  1021.6hPa Calm     95% 0in /  0.0mm 0.00 W/m2
05:10 37.2 °F /  2.9 °C 36 °F /  2.2 °C 30.2in /  1021.6hPa Calm     95% 0in /  0.0mm 0.00 W/m2
05:15 37.2 °F /  2.9 °C 36 °F /  2.2 °C 30.2in /  1021.6hPa Calm     95% 0in /  0.0mm 0.00 W/m2
05:20 37 °F /  2.8 °C 35.8 °F /  2.1 °C 30.2in /  1021.9hPa Calm     95% 0in /  0.0mm 0.00 W/m2
05:25 37 °F /  2.8 °C 35.8 °F /  2.1 °C 30.2in /  1021.9hPa Calm     95% 0in /  0.0mm 0.00 W/m2
05:30 36.9 °F /  2.7 °C 35.6 °F /  2.0 °C 30.2in /  1021.9hPa Calm     95% 0in /  0.0mm 0.00 W/m2
05:35 36.9 °F /  2.7 °C 35.6 °F /  2.0 °C 30.2in /  1022.2hPa Calm     95% 0in /  0.0mm 0.00 W/m2
05:40 36.7 °F /  2.6 °C 35.4 °F /  1.9 °C 30.2in /  1022.2hPa Calm     95% 0in /  0.0mm 0.00 W/m2
05:45 36.7 °F /  2.6 °C 35.4 °F /  1.9 °C 30.2in /  1022.2hPa Calm   2mph /  3.2km/h 95% 0in /  0.0mm 0.00 W/m2
05:50 36.7 °F /  2.6 °C 35.4 °F /  1.9 °C 30.2in /  1022.2hPa Calm     95% 0in /  0.0mm 0.00 W/m2
05:55 36.7 °F /  2.6 °C 35.4 °F /  1.9 °C 30.2in /  1022.2hPa Calm   1mph /  1.6km/h 95% 0in /  0.0mm 0.00 W/m2
06:00 36.7 °F /  2.6 °C 35.4 °F /  1.9 °C 30.2in /  1022.2hPa Calm     95% 0in /  0.0mm 0.00 W/m2
06:05 36.7 °F /  2.6 °C 35.4 °F /  1.9 °C 30.2in /  1022.2hPa Calm     95% 0in /  0.0mm 0.00 W/m2
06:10 36.7 °F /  2.6 °C 35.4 °F /  1.9 °C 30.2in /  1022.2hPa Calm     95% 0in /  0.0mm 0.00 W/m2
06:15 36.5 °F /  2.5 °C 35.2 °F /  1.8 °C 30.2in /  1022.2hPa Calm     95% 0in /  0.0mm 0.00 W/m2
06:20 36.3 °F /  2.4 °C 35.1 °F /  1.7 °C 30.2in /  1022.6hPa Calm     95% 0in /  0.0mm 0.00 W/m2
06:25 36 °F /  2.2 °C 34.7 °F /  1.5 °C 30.2in /  1022.6hPa Calm     95% 0in /  0.0mm 0.00 W/m2
06:30 36 °F /  2.2 °C 34.7 °F /  1.5 °C 30.2in /  1022.6hPa Calm     95% 0in /  0.0mm 0.00 W/m2
06:35 36 °F /  2.2 °C 34.7 °F /  1.5 °C 30.2in /  1022.6hPa Calm     95% 0in /  0.0mm 0.00 W/m2
06:40 36 °F /  2.2 °C 34.7 °F /  1.5 °C 30.2in /  1022.6hPa Calm     95% 0in /  0.0mm 0.00 W/m2
06:45 36 °F /  2.2 °C 34.7 °F /  1.5 °C 30.2in /  1022.6hPa Calm     95% 0in /  0.0mm 0.00 W/m2
06:50 36 °F /  2.2 °C 34.7 °F /  1.5 °C 30.2in /  1022.9hPa Calm     95% 0in /  0.0mm 0.00 W/m2
06:55 36 °F /  2.2 °C 34.7 °F /  1.5 °C 30.2in /  1022.9hPa Calm     95% 0in /  0.0mm 0.00 W/m2
07:00 36 °F /  2.2 °C 34.7 °F /  1.5 °C 30.2in /  1022.9hPa Calm     95% 0in /  0.0mm 5.00 W/m2
07:05 35.8 °F /  2.1 °C 34.5 °F /  1.4 °C 30.2in /  1022.9hPa WNW 0.9mph /  1.4km/h 2mph /  3.2km/h 95% 0in /  0.0mm 9.00 W/m2
07:10 35.8 °F /  2.1 °C 34.5 °F /  1.4 °C 30.2in /  1023.2hPa Calm   2mph /  3.2km/h 95% 0in /  0.0mm 12.00 W/m2
07:15 36 °F /  2.2 °C 34.7 °F /  1.5 °C 30.2in /  1023.2hPa Calm   1mph /  1.6km/h 95% 0in /  0.0mm 19.00 W/m2
07:20 36.1 °F /  2.3 °C 34.9 °F /  1.6 °C 30.2in /  1023.2hPa Calm   1mph /  1.6km/h 95% 0in /  0.0mm 25.00 W/m2
07:25 36.1 °F /  2.3 °C 34.9 °F /  1.6 °C 30.2in /  1023.2hPa Calm     95% 0in /  0.0mm 28.00 W/m2
07:30 36 °F /  2.2 °C 34.7 °F /  1.5 °C 30.2in /  1023.2hPa Calm     95% 0in /  0.0mm 33.00 W/m2
07:35 36.1 °F /  2.3 °C 34.9 °F /  1.6 °C 30.2in /  1023.6hPa Calm     95% 0in /  0.0mm 39.00 W/m2
07:40 36.3 °F /  2.4 °C 35.1 °F /  1.7 °C 30.2in /  1023.6hPa Calm     95% 0in /  0.0mm 44.00 W/m2
07:45 36.5 °F /  2.5 °C 35.2 °F /  1.8 °C 30.2in /  1023.6hPa Calm     95% 0in /  0.0mm 47.00 W/m2
07:50 36.7 °F /  2.6 °C 35.4 °F /  1.9 °C 30.2in /  1023.9hPa Calm     95% 0in /  0.0mm 51.00 W/m2
07:55 36.7 °F /  2.6 °C 35.4 °F /  1.9 °C 30.2in /  1023.9hPa Calm     95% 0in /  0.0mm 53.00 W/m2
08:00 36.7 °F /  2.6 °C 35.4 °F /  1.9 °C 30.2in /  1023.9hPa Calm     95% 0in /  0.0mm 53.00 W/m2
08:05 36.9 °F /  2.7 °C 35.6 °F /  2.0 °C 30.2in /  1023.9hPa Calm     95% 0in /  0.0mm 53.00 W/m2
08:10 37 °F /  2.8 °C 35.8 °F /  2.1 °C 30.2in /  1023.9hPa Calm     95% 0in /  0.0mm 54.00 W/m2
08:15 37.2 °F /  2.9 °C 36 °F /  2.2 °C 30.2in /  1023.9hPa Calm     95% 0in /  0.0mm 56.00 W/m2
08:20 37.8 °F /  3.2 °C 36.5 °F /  2.5 °C 30.2in /  1023.9hPa Calm     95% 0in /  0.0mm 76.00 W/m2
08:25 38.5 °F /  3.6 °C 37.2 °F /  2.9 °C 30.2in /  1023.9hPa Calm     95% 0in /  0.0mm 84.00 W/m2
08:30 38.5 °F /  3.6 °C 37.2 °F /  2.9 °C 30.2in /  1023.9hPa Calm   1mph /  1.6km/h 95% 0in /  0.0mm 65.00 W/m2
08:35 38.8 °F /  3.8 °C 37.8 °F /  3.2 °C 30.3in /  1024.3hPa Calm     96% 0in /  0.0mm 95.00 W/m2
08:40 39 °F /  3.9 °C 37.9 °F /  3.3 °C 30.3in /  1024.3hPa Calm     96% 0in /  0.0mm 63.00 W/m2
08:45 39.9 °F /  4.4 °C 38.8 °F /  3.8 °C 30.3in /  1024.3hPa Calm     96% 0in /  0.0mm 100.00 W/m2
08:50 39.6 °F /  4.2 °C 38.5 °F /  3.6 °C 30.3in /  1024.6hPa Calm     96% 0in /  0.0mm 128.00 W/m2
08:55 40.3 °F /  4.6 °C 39.2 °F /  4.0 °C 30.3in /  1024.6hPa Calm     96% 0in /  0.0mm 123.00 W/m2
09:00 41.2 °F /  5.1 °C 40.1 °F /  4.5 °C 30.3in /  1024.6hPa Calm     96% 0in /  0.0mm 151.00 W/m2
09:05 40.8 °F /  4.9 °C 39.7 °F /  4.3 °C 30.3in /  1024.6hPa Calm     96% 0in /  0.0mm 188.00 W/m2
09:10 40.6 °F /  4.8 °C 39.6 °F /  4.2 °C 30.3in /  1024.6hPa Calm     96% 0in /  0.0mm 155.00 W/m2
09:15 41 °F /  5.0 °C 39.9 °F /  4.4 °C 30.3in /  1024.6hPa Calm     96% 0in /  0.0mm 163.00 W/m2
09:20 42.1 °F /  5.6 °C 41 °F /  5.0 °C 30.3in /  1024.6hPa Calm     96% 0in /  0.0mm 174.00 W/m2
09:25 42.1 °F /  5.6 °C 41 °F /  5.0 °C 30.3in /  1024.6hPa Calm   2mph /  3.2km/h 96% 0in /  0.0mm 204.00 W/m2
09:30 43 °F /  6.1 °C 41.9 °F /  5.5 °C 30.3in /  1024.6hPa Calm     96% 0in /  0.0mm 230.00 W/m2
09:35 43.2 °F /  6.2 °C 41.9 °F /  5.5 °C 30.3in /  1024.9hPa WNW 0.9mph /  1.4km/h 1mph /  1.6km/h 95% 0in /  0.0mm 190.00 W/m2
09:40 43 °F /  6.1 °C 41.7 °F /  5.4 °C 30.3in /  1024.6hPa WNW 4mph /  6.4km/h 5mph /  8.0km/h 95% 0in /  0.0mm 190.00 W/m2
09:45 43.3 °F /  6.3 °C 42.1 °F /  5.6 °C 30.3in /  1024.6hPa WNW 2.9mph /  4.7km/h 5mph /  8.0km/h 95% 0in /  0.0mm 243.00 W/m2
09:50 44.1 °F /  6.7 °C 42.4 °F /  5.8 °C 30.3in /  1024.9hPa WNW 2.9mph /  4.7km/h 4mph /  6.4km/h 94% 0in /  0.0mm 262.00 W/m2
09:55 44.6 °F /  7.0 °C 43 °F /  6.1 °C 30.3in /  1024.9hPa WNW 0.9mph /  1.4km/h 3mph /  4.8km/h 94% 0in /  0.0mm 260.00 W/m2
10:00 45 °F /  7.2 °C 43 °F /  6.1 °C 30.3in /  1024.6hPa Calm   3mph /  4.8km/h 93% 0in /  0.0mm 295.00 W/m2
10:05 46 °F /  7.8 °C 43.5 °F /  6.4 °C 30.3in /  1024.9hPa Calm   2mph /  3.2km/h 91% 0in /  0.0mm 316.00 W/m2
10:10 46.8 °F /  8.2 °C 44.1 °F /  6.7 °C 30.3in /  1024.9hPa WNW 2mph /  3.2km/h 4mph /  6.4km/h 90% 0in /  0.0mm 304.00 W/m2
10:15 46.8 °F /  8.2 °C 43.3 °F /  6.3 °C 30.3in /  1024.9hPa WNW 2.9mph /  4.7km/h 3mph /  4.8km/h 88% 0in /  0.0mm 285.00 W/m2
10:20 46.8 °F /  8.2 °C 43.2 °F /  6.2 °C 30.3in /  1024.9hPa WNW 2.9mph /  4.7km/h 5mph /  8.0km/h 87% 0in /  0.0mm 269.00 W/m2
10:25 46.2 °F /  7.9 °C 42.3 °F /  5.7 °C 30.3in /  1024.9hPa WNW 4mph /  6.4km/h 5mph /  8.0km/h 86% 0in /  0.0mm 306.00 W/m2
10:30 46.6 °F /  8.1 °C 42.3 °F /  5.7 °C 30.3in /  1024.9hPa WNW 2mph /  3.2km/h 4mph /  6.4km/h 85% 0in /  0.0mm 325.00 W/m2
10:35 47.1 °F /  8.4 °C 43.2 °F /  6.2 °C 30.3in /  1024.9hPa Calm   3mph /  4.8km/h 86% 0in /  0.0mm 343.00 W/m2
10:40 47.5 °F /  8.6 °C 43.2 °F /  6.2 °C 30.3in /  1024.9hPa WNW 4mph /  6.4km/h 5mph /  8.0km/h 85% 0in /  0.0mm 322.00 W/m2
10:45 47.1 °F /  8.4 °C 42.6 °F /  5.9 °C 30.3in /  1024.9hPa WNW 2mph /  3.2km/h 7mph /  11.3km/h 84% 0in /  0.0mm 316.00 W/m2
10:50 47.8 °F /  8.8 °C 43.2 °F /  6.2 °C 30.3in /  1024.9hPa WNW 4mph /  6.4km/h 4mph /  6.4km/h 84% 0in /  0.0mm 364.00 W/m2
10:55 48 °F /  8.9 °C 43.2 °F /  6.2 °C 30.3in /  1024.9hPa West 4.9mph /  7.9km/h 7mph /  11.3km/h 83% 0in /  0.0mm 376.00 W/m2
11:00 48.2 °F /  9.0 °C 43.3 °F /  6.3 °C 30.3in /  1024.9hPa West 6mph /  9.7km/h 6mph /  9.7km/h 83% 0in /  0.0mm 387.00 W/m2
11:05 49.1 °F /  9.5 °C 44.2 °F /  6.8 °C 30.3in /  1024.9hPa West 0.9mph /  1.4km/h 5mph /  8.0km/h 83% 0in /  0.0mm 381.00 W/m2
11:10 48.9 °F /  9.4 °C 43.3 °F /  6.3 °C 30.3in /  1024.9hPa WNW 4.9mph /  7.9km/h 6mph /  9.7km/h 81% 0in /  0.0mm 396.00 W/m2
11:15 48.9 °F /  9.4 °C 43.3 °F /  6.3 °C 30.3in /  1024.9hPa NW 4.9mph /  7.9km/h 8mph /  12.9km/h 81% 0in /  0.0mm 369.00 W/m2
11:20 50.2 °F /  10.1 °C 44.6 °F /  7.0 °C 30.3in /  1024.9hPa West 4.9mph /  7.9km/h 7mph /  11.3km/h 81% 0in /  0.0mm 387.00 W/m2
11:25 49.8 °F /  9.9 °C 43.2 °F /  6.2 °C 30.3in /  1024.9hPa NW 2.9mph /  4.7km/h 6mph /  9.7km/h 78% 0in /  0.0mm 401.00 W/m2
11:30 50.2 °F /  10.1 °C 43.5 °F /  6.4 °C 30.3in /  1024.9hPa NW 2.9mph /  4.7km/h 3mph /  4.8km/h 78% 0in /  0.0mm 362.00 W/m2
11:35 50.4 °F /  10.2 °C 43.2 °F /  6.2 °C 30.3in /  1024.9hPa NNE 0.9mph /  1.4km/h 7mph /  11.3km/h 76% 0in /  0.0mm 413.00 W/m2
11:40 50.9 °F /  10.5 °C 43.5 °F /  6.4 °C 30.3in /  1024.9hPa WNW 2.9mph /  4.7km/h 6mph /  9.7km/h 76% 0in /  0.0mm 380.00 W/m2
11:45 51.4 °F /  10.8 °C 44.1 °F /  6.7 °C 30.3in /  1024.9hPa Calm   3mph /  4.8km/h 76% 0in /  0.0mm 427.00 W/m2
11:50 51.4 °F /  10.8 °C 43.7 °F /  6.5 °C 30.3in /  1024.9hPa WNW 4mph /  6.4km/h 5mph /  8.0km/h 75% 0in /  0.0mm 413.00 W/m2
11:55 51.3 °F /  10.7 °C 42.6 °F /  5.9 °C 30.3in /  1024.6hPa WNW 4mph /  6.4km/h 6mph /  9.7km/h 72% 0in /  0.0mm 399.00 W/m2
12:00 51.3 °F /  10.7 °C 42.3 °F /  5.7 °C 30.3in /  1024.6hPa NW 2.9mph /  4.7km/h 6mph /  9.7km/h 71% 0in /  0.0mm 374.00 W/m2
12:05 52 °F /  11.1 °C 42.4 °F /  5.8 °C 30.3in /  1024.6hPa NNW 2mph /  3.2km/h 6mph /  9.7km/h 70% 0in /  0.0mm 420.00 W/m2
12:10 52 °F /  11.1 °C 42.4 °F /  5.8 °C 30.3in /  1024.6hPa Calm   2mph /  3.2km/h 70% 0in /  0.0mm 445.00 W/m2
12:15 52.9 °F /  11.6 °C 43 °F /  6.1 °C 30.3in /  1024.6hPa NNW 2mph /  3.2km/h 3mph /  4.8km/h 69% 0in /  0.0mm 441.00 W/m2
12:20 53.4 °F /  11.9 °C 43.2 °F /  6.2 °C 30.3in /  1024.3hPa Calm   4mph /  6.4km/h 68% 0in /  0.0mm 360.00 W/m2
12:25 52.3 °F /  11.3 °C 41.4 °F /  5.2 °C 30.3in /  1024.3hPa NNE 2.9mph /  4.7km/h 3mph /  4.8km/h 66% 0in /  0.0mm 396.00 W/m2
12:30 52.3 °F /  11.3 °C 41.4 °F /  5.2 °C 30.3in /  1024.3hPa NNE 2.9mph /  4.7km/h 7mph /  11.3km/h 66% 0in /  0.0mm 355.00 W/m2
12:35 54.1 °F /  12.3 °C 42.6 °F /  5.9 °C 30.3in /  1024.3hPa NNW 2.9mph /  4.7km/h 6mph /  9.7km/h 65% 0in /  0.0mm 306.00 W/m2
12:40 52.3 °F /  11.3 °C 42.4 °F /  5.8 °C 30.3in /  1024.3hPa NNW 4mph /  6.4km/h 5mph /  8.0km/h 69% 0in /  0.0mm 315.00 W/m2
12:45 52.2 °F /  11.2 °C 42.6 °F /  5.9 °C 30.3in /  1024.3hPa North 4mph /  6.4km/h 7mph /  11.3km/h 70% 0in /  0.0mm 323.00 W/m2
12:50 52.3 °F /  11.3 °C 43.2 °F /  6.2 °C 30.3in /  1024.6hPa Calm   4mph /  6.4km/h 71% 0in /  0.0mm 403.00 W/m2
12:55 53.2 °F /  11.8 °C 43.7 °F /  6.5 °C 30.3in /  1024.3hPa North 4mph /  6.4km/h 6mph /  9.7km/h 70% 0in /  0.0mm 396.00 W/m2
13:00 52.5 °F /  11.4 °C 42.6 °F /  5.9 °C 30.3in /  1024.6hPa North 2mph /  3.2km/h 4mph /  6.4km/h 69% 0in /  0.0mm 367.00 W/m2
13:05 52.7 °F /  11.5 °C 42.8 °F /  6.0 °C 30.3in /  1024.6hPa North 2mph /  3.2km/h 8mph /  12.9km/h 69% 0in /  0.0mm 410.00 W/m2
13:10 53.2 °F /  11.8 °C 43 °F /  6.1 °C 30.3in /  1024.3hPa North 2mph /  3.2km/h 6mph /  9.7km/h 68% 0in /  0.0mm 373.00 W/m2
13:15 53.2 °F /  11.8 °C 43 °F /  6.1 °C 30.3in /  1024.3hPa North 0.9mph /  1.4km/h 1mph /  1.6km/h 68% 0in /  0.0mm 403.00 W/m2
13:20 53.1 °F /  11.7 °C 42.8 °F /  6.0 °C 30.3in /  1024.3hPa NW 2mph /  3.2km/h 7mph /  11.3km/h 68% 0in /  0.0mm 387.00 W/m2
13:25 54.3 °F /  12.4 °C 44.8 °F /  7.1 °C 30.3in /  1024.3hPa NNW 2mph /  3.2km/h 4mph /  6.4km/h 70% 0in /  0.0mm 364.00 W/m2
13:30 54.1 °F /  12.3 °C 43 °F /  6.1 °C 30.3in /  1024.6hPa NNW 0.9mph /  1.4km/h 4mph /  6.4km/h 66% 0in /  0.0mm 390.00 W/m2
13:35 53.4 °F /  11.9 °C 43.2 °F /  6.2 °C 30.3in /  1024.6hPa North 6mph /  9.7km/h 8mph /  12.9km/h 68% 0in /  0.0mm 360.00 W/m2
13:40 54.3 °F /  12.4 °C 44.1 °F /  6.7 °C 30.3in /  1024.6hPa NNE 0.9mph /  1.4km/h 5mph /  8.0km/h 68% 0in /  0.0mm 378.00 W/m2
13:45 54.1 °F /  12.3 °C 43.3 °F /  6.3 °C 30.3in /  1024.6hPa NNE 2.9mph /  4.7km/h 4mph /  6.4km/h 67% 0in /  0.0mm 366.00 W/m2
13:50 53.1 °F /  11.7 °C 42.4 °F /  5.8 °C 30.3in /  1024.6hPa NW 6.9mph /  11.1km/h 7mph /  11.3km/h 67% 0in /  0.0mm 322.00 W/m2
13:55 52.5 °F /  11.4 °C 42.6 °F /  5.9 °C 30.3in /  1024.6hPa WNW 2mph /  3.2km/h 5mph /  8.0km/h 69% 0in /  0.0mm 241.00 W/m2
14:00 53.4 °F /  11.9 °C 43.2 °F /  6.2 °C 30.3in /  1024.6hPa WNW 0.9mph /  1.4km/h 4mph /  6.4km/h 68% 0in /  0.0mm 323.00 W/m2
14:05 54.1 °F /  12.3 °C 43.9 °F /  6.6 °C 30.3in /  1024.6hPa NW 2mph /  3.2km/h 4mph /  6.4km/h 68% 0in /  0.0mm 322.00 W/m2
14:10 54 °F /  12.2 °C 44.1 °F /  6.7 °C 30.3in /  1024.6hPa NW 4.9mph /  7.9km/h 5mph /  8.0km/h 69% 0in /  0.0mm 322.00 W/m2
14:15 53.2 °F /  11.8 °C 43 °F /  6.1 °C 30.3in /  1024.6hPa NE 6mph /  9.7km/h 9mph /  14.5km/h 68% 0in /  0.0mm 276.00 W/m2
14:20 52.9 °F /  11.6 °C 42.6 °F /  5.9 °C 30.3in /  1024.6hPa NNW 4.9mph /  7.9km/h 7mph /  11.3km/h 68% 0in /  0.0mm 244.00 W/m2
14:25 52.9 °F /  11.6 °C 42.6 °F /  5.9 °C 30.3in /  1024.6hPa Calm   4mph /  6.4km/h 68% 0in /  0.0mm 292.00 W/m2
14:30 53.1 °F /  11.7 °C 42.8 °F /  6.0 °C 30.3in /  1024.6hPa North 4mph /  6.4km/h 4mph /  6.4km/h 68% 0in /  0.0mm 214.00 W/m2
14:35 53.4 °F /  11.9 °C 43.5 °F /  6.4 °C 30.3in /  1024.6hPa Calm   2mph /  3.2km/h 69% 0in /  0.0mm 241.00 W/m2
14:40 53.4 °F /  11.9 °C 43.2 °F /  6.2 °C 30.3in /  1024.6hPa North 2mph /  3.2km/h 4mph /  6.4km/h 68% 0in /  0.0mm 171.00 W/m2
14:45 53.1 °F /  11.7 °C 42.4 °F /  5.8 °C 30.3in /  1024.6hPa North 2.9mph /  4.7km/h 5mph /  8.0km/h 67% 0in /  0.0mm 128.00 W/m2
14:50 52.7 °F /  11.5 °C 42.4 °F /  5.8 °C 30.3in /  1024.6hPa North 4.9mph /  7.9km/h 6mph /  9.7km/h 68% 0in /  0.0mm 179.00 W/m2
14:55 52.5 °F /  11.4 °C 42.3 °F /  5.7 °C 30.3in /  1024.6hPa North 2mph /  3.2km/h 4mph /  6.4km/h 68% 0in /  0.0mm 128.00 W/m2
15:00 52.5 °F /  11.4 °C 42.6 °F /  5.9 °C 30.3in /  1024.6hPa North 4.9mph /  7.9km/h 5mph /  8.0km/h 69% 0in /  0.0mm 149.00 W/m2
15:05 52.3 °F /  11.3 °C 42.8 °F /  6.0 °C 30.3in /  1024.6hPa North 4.9mph /  7.9km/h 6mph /  9.7km/h 70% 0in /  0.0mm 134.00 W/m2
15:10 52.2 °F /  11.2 °C 42.3 °F /  5.7 °C 30.3in /  1024.6hPa Calm   6mph /  9.7km/h 69% 0in /  0.0mm 109.00 W/m2
15:15 52.2 °F /  11.2 °C 42.6 °F /  5.9 °C 30.3in /  1024.6hPa North 2mph /  3.2km/h 3mph /  4.8km/h 70% 0in /  0.0mm 111.00 W/m2
15:20 52 °F /  11.1 °C 42.4 °F /  5.8 °C 30.3in /  1024.6hPa Calm   3mph /  4.8km/h 70% 0in /  0.0mm 114.00 W/m2
15:25 52.2 °F /  11.2 °C 43 °F /  6.1 °C 30.3in /  1024.6hPa Calm     71% 0in /  0.0mm 114.00 W/m2
15:30 52.3 °F /  11.3 °C 43.2 °F /  6.2 °C 30.3in /  1024.6hPa Calm     71% 0in /  0.0mm 107.00 W/m2
15:35 52.3 °F /  11.3 °C 43.2 °F /  6.2 °C 30.3in /  1024.6hPa Calm     71% 0in /  0.0mm 83.00 W/m2
15:40 52.3 °F /  11.3 °C 43.2 °F /  6.2 °C 30.3in /  1024.9hPa Calm     71% 0in /  0.0mm 84.00 W/m2
15:45 52.2 °F /  11.2 °C 43 °F /  6.1 °C 30.3in /  1024.9hPa Calm     71% 0in /  0.0mm 79.00 W/m2
15:50 52 °F /  11.1 °C 43.2 °F /  6.2 °C 30.3in /  1024.9hPa Calm     72% 0in /  0.0mm 67.00 W/m2
15:55 51.6 °F /  10.9 °C 43 °F /  6.1 °C 30.3in /  1024.9hPa Calm     72% 0in /  0.0mm 60.00 W/m2
16:00 51.4 °F /  10.8 °C 42.8 °F /  6.0 °C 30.3in /  1024.9hPa Calm     72% 0in /  0.0mm 51.00 W/m2
16:05 51.3 °F /  10.7 °C 42.6 °F /  5.9 °C 30.3in /  1024.9hPa Calm     72% 0in /  0.0mm 44.00 W/m2
16:10 51.4 °F /  10.8 °C 43.2 °F /  6.2 °C 30.3in /  1024.9hPa Calm     73% 0in /  0.0mm 40.00 W/m2
16:15 51.4 °F /  10.8 °C 43.5 °F /  6.4 °C 30.3in /  1024.9hPa Calm     74% 0in /  0.0mm 35.00 W/m2
16:20 51.1 °F /  10.6 °C 43.2 °F /  6.2 °C 30.3in /  1024.9hPa Calm     74% 0in /  0.0mm 30.00 W/m2
16:25 50.4 °F /  10.2 °C 42.8 °F /  6.0 °C 30.3in /  1024.9hPa Calm     75% 0in /  0.0mm 25.00 W/m2
16:30 50.2 °F /  10.1 °C 42.6 °F /  5.9 °C 30.3in /  1024.9hPa Calm     75% 0in /  0.0mm 21.00 W/m2
16:35 49.6 °F /  9.8 °C 42.1 °F /  5.6 °C 30.3in /  1024.9hPa Calm     75% 0in /  0.0mm 18.00 W/m2
16:40 49.5 °F /  9.7 °C 41.9 °F /  5.5 °C 30.3in /  1024.9hPa Calm     75% 0in /  0.0mm 12.00 W/m2
16:45 48.9 °F /  9.4 °C 41.7 °F /  5.4 °C 30.3in /  1024.9hPa Calm     76% 0in /  0.0mm 9.00 W/m2
16:50 48.4 °F /  9.1 °C 41.5 °F /  5.3 °C 30.3in /  1024.9hPa Calm     77% 0in /  0.0mm 5.00 W/m2
16:55 47.7 °F /  8.7 °C 40.8 °F /  4.9 °C 30.3in /  1025.3hPa Calm     77% 0in /  0.0mm 0.00 W/m2
17:00 47.1 °F /  8.4 °C 41 °F /  5.0 °C 30.3in /  1025.3hPa Calm     79% 0in /  0.0mm 0.00 W/m2
17:05 46.8 °F /  8.2 °C 41 °F /  5.0 °C 30.3in /  1025.3hPa Calm     80% 0in /  0.0mm 0.00 W/m2
17:10 46.8 °F /  8.2 °C 41.2 °F /  5.1 °C 30.3in /  1025.3hPa Calm     81% 0in /  0.0mm 0.00 W/m2
17:15 46.6 °F /  8.1 °C 41.4 °F /  5.2 °C 30.3in /  1025.3hPa Calm     82% 0in /  0.0mm 0.00 W/m2
17:20 45.7 °F /  7.6 °C 40.5 °F /  4.7 °C 30.3in /  1025.3hPa Calm     82% 0in /  0.0mm 0.00 W/m2
17:25 45.7 °F /  7.6 °C 40.8 °F /  4.9 °C 30.3in /  1025.3hPa Calm     83% 0in /  0.0mm 0.00 W/m2
17:30 45.5 °F /  7.5 °C 41 °F /  5.0 °C 30.3in /  1025.3hPa Calm     84% 0in /  0.0mm 0.00 W/m2
17:35 45.1 °F /  7.3 °C 40.6 °F /  4.8 °C 30.3in /  1025.3hPa Calm     84% 0in /  0.0mm 0.00 W/m2
17:40 45 °F /  7.2 °C 40.6 °F /  4.8 °C 30.3in /  1025.6hPa Calm     85% 0in /  0.0mm 0.00 W/m2
17:45 44.8 °F /  7.1 °C 40.5 °F /  4.7 °C 30.3in /  1025.6hPa Calm     85% 0in /  0.0mm 0.00 W/m2
17:50 44.2 °F /  6.8 °C 40.1 °F /  4.5 °C 30.3in /  1025.6hPa Calm     85% 0in /  0.0mm 0.00 W/m2
17:55 43.9 °F /  6.6 °C 39.9 °F /  4.4 °C 30.3in /  1025.6hPa Calm     86% 0in /  0.0mm 0.00 W/m2
18:00 43.5 °F /  6.4 °C 39.6 °F /  4.2 °C 30.3in /  1025.6hPa Calm     86% 0in /  0.0mm 0.00 W/m2
18:05 43.5 °F /  6.4 °C 39.9 °F /  4.4 °C 30.3in /  1025.6hPa Calm     87% 0in /  0.0mm 0.00 W/m2
18:10 43.2 °F /  6.2 °C 39.6 °F /  4.2 °C 30.3in /  1025.6hPa Calm     87% 0in /  0.0mm 0.00 W/m2
18:15 43 °F /  6.1 °C 39.4 °F /  4.1 °C 30.3in /  1025.6hPa Calm     87% 0in /  0.0mm 0.00 W/m2
18:20 43 °F /  6.1 °C 39.4 °F /  4.1 °C 30.3in /  1025.6hPa Calm     87% 0in /  0.0mm 0.00 W/m2
18:25 42.6 °F /  5.9 °C 39.4 °F /  4.1 °C 30.3in /  1025.6hPa Calm     88% 0in /  0.0mm 0.00 W/m2
18:30 42.4 °F /  5.8 °C 39.2 °F /  4.0 °C 30.3in /  1025.6hPa Calm     88% 0in /  0.0mm 0.00 W/m2
18:35 42.3 °F /  5.7 °C 39 °F /  3.9 °C 30.3in /  1025.6hPa Calm     88% 0in /  0.0mm 0.00 W/m2
18:40 42.3 °F /  5.7 °C 39 °F /  3.9 °C 30.3in /  1025.6hPa Calm     88% 0in /  0.0mm 0.00 W/m2
18:45 42.1 °F /  5.6 °C 38.8 °F /  3.8 °C 30.3in /  1025.6hPa Calm     88% 0in /  0.0mm 0.00 W/m2
18:50 41.9 °F /  5.5 °C 38.8 °F /  3.8 °C 30.3in /  1025.6hPa Calm     89% 0in /  0.0mm 0.00 W/m2
18:55 41.5 °F /  5.3 °C 38.5 °F /  3.6 °C 30.3in /  1025.6hPa Calm     89% 0in /  0.0mm 0.00 W/m2
19:00 41.4 °F /  5.2 °C 38.3 °F /  3.5 °C 30.3in /  1025.6hPa Calm     89% 0in /  0.0mm 0.00 W/m2
19:05 41.2 °F /  5.1 °C 38.1 °F /  3.4 °C 30.3in /  1025.6hPa Calm     89% 0in /  0.0mm 0.00 W/m2
19:10 41 °F /  5.0 °C 37.9 °F /  3.3 °C 30.3in /  1025.6hPa Calm     89% 0in /  0.0mm 0.00 W/m2
19:15 41.2 °F /  5.1 °C 38.1 °F /  3.4 °C 30.3in /  1025.6hPa Calm     89% 0in /  0.0mm 0.00 W/m2
19:20 40.8 °F /  4.9 °C 37.8 °F /  3.2 °C 30.3in /  1025.6hPa Calm     89% 0in /  0.0mm 0.00 W/m2
19:25 40.8 °F /  4.9 °C 38.1 °F /  3.4 °C 30.3in /  1025.6hPa Calm     90% 0in /  0.0mm 0.00 W/m2
19:30 40.8 °F /  4.9 °C 38.1 °F /  3.4 °C 30.3in /  1025.3hPa Calm     90% 0in /  0.0mm 0.00 W/m2
19:35 40.5 °F /  4.7 °C 37.8 °F /  3.2 °C 30.3in /  1025.3hPa Calm     90% 0in /  0.0mm 0.00 W/m2
19:40 40.5 °F /  4.7 °C 37.8 °F /  3.2 °C 30.3in /  1025.6hPa Calm     90% 0in /  0.0mm 0.00 W/m2
19:45 40.3 °F /  4.6 °C 37.6 °F /  3.1 °C 30.3in /  1025.6hPa Calm     90% 0in /  0.0mm 0.00 W/m2
19:50 39.9 °F /  4.4 °C 37.2 °F /  2.9 °C 30.3in /  1025.6hPa Calm     90% 0in /  0.0mm 0.00 W/m2
19:55 39.7 °F /  4.3 °C 37 °F /  2.8 °C 30.3in /  1025.6hPa Calm     90% 0in /  0.0mm 0.00 W/m2
20:00 39.7 °F /  4.3 °C 37 °F /  2.8 °C 30.3in /  1025.6hPa Calm     90% 0in /  0.0mm 0.00 W/m2
20:05 39.7 °F /  4.3 °C 37.4 °F /  3.0 °C 30.3in /  1025.6hPa Calm     91% 0in /  0.0mm 0.00 W/m2
20:10 39.7 °F /  4.3 °C 37.4 °F /  3.0 °C 30.3in /  1025.6hPa Calm     91% 0in /  0.0mm 0.00 W/m2
20:15 39.7 °F /  4.3 °C 37.4 °F /  3.0 °C 30.3in /  1025.6hPa Calm     91% 0in /  0.0mm 0.00 W/m2
20:20 39.6 °F /  4.2 °C 37.2 °F /  2.9 °C 30.3in /  1025.6hPa Calm     91% 0in /  0.0mm 0.00 W/m2
20:25 39.4 °F /  4.1 °C 37 °F /  2.8 °C 30.3in /  1025.6hPa Calm     91% 0in /  0.0mm 0.00 W/m2
20:30 39.2 °F /  4.0 °C 36.9 °F /  2.7 °C 30.3in /  1025.6hPa Calm     91% 0in /  0.0mm 0.00 W/m2
20:35 39.2 °F /  4.0 °C 36.9 °F /  2.7 °C 30.3in /  1025.6hPa Calm   1mph /  1.6km/h 91% 0in /  0.0mm 0.00 W/m2
20:40 39 °F /  3.9 °C 36.7 °F /  2.6 °C 30.3in /  1025.6hPa Calm   1mph /  1.6km/h 91% 0in /  0.0mm 0.00 W/m2
20:45 38.8 °F /  3.8 °C 36.5 °F /  2.5 °C 30.3in /  1025.6hPa Calm     91% 0in /  0.0mm 0.00 W/m2
20:50 38.7 °F /  3.7 °C 36.3 °F /  2.4 °C 30.3in /  1025.6hPa Calm   1mph /  1.6km/h 91% 0in /  0.0mm 0.00 W/m2
20:55 38.5 °F /  3.6 °C 36.1 °F /  2.3 °C 30.3in /  1025.6hPa Calm     91% 0in /  0.0mm 0.00 W/m2
21:00 38.5 °F /  3.6 °C 36.1 °F /  2.3 °C 30.3in /  1026.0hPa Calm     91% 0in /  0.0mm 0.00 W/m2
21:05 38.5 °F /  3.6 °C 36.1 °F /  2.3 °C 30.3in /  1026.0hPa Calm     91% 0in /  0.0mm 0.00 W/m2
21:10 38.3 °F /  3.5 °C 36.1 °F /  2.3 °C 30.3in /  1026.0hPa Calm     92% 0in /  0.0mm 0.00 W/m2
21:15 38.1 °F /  3.4 °C 36 °F /  2.2 °C 30.3in /  1026.0hPa Calm     92% 0in /  0.0mm 0.00 W/m2
21:20 38.1 °F /  3.4 °C 36 °F /  2.2 °C 30.3in /  1026.3hPa Calm     92% 0in /  0.0mm 0.00 W/m2
21:25 38.1 °F /  3.4 °C 36 °F /  2.2 °C 30.3in /  1026.3hPa Calm     92% 0in /  0.0mm 0.00 W/m2
21:30 38.1 °F /  3.4 °C 36 °F /  2.2 °C 30.3in /  1026.3hPa Calm     92% 0in /  0.0mm 0.00 W/m2
21:35 37.9 °F /  3.3 °C 35.8 °F /  2.1 °C 30.3in /  1026.3hPa Calm     92% 0in /  0.0mm 0.00 W/m2
21:40 37.9 °F /  3.3 °C 35.8 °F /  2.1 °C 30.3in /  1026.3hPa Calm     92% 0in /  0.0mm 0.00 W/m2
21:45 37.9 °F /  3.3 °C 35.8 °F /  2.1 °C 30.3in /  1026.6hPa Calm     92% 0in /  0.0mm 0.00 W/m2
21:50 37.9 °F /  3.3 °C 35.8 °F /  2.1 °C 30.3in /  1026.3hPa Calm     92% 0in /  0.0mm 0.00 W/m2
21:55 37.9 °F /  3.3 °C 35.8 °F /  2.1 °C 30.3in /  1026.3hPa Calm     92% 0in /  0.0mm 0.00 W/m2
22:00 37.8 °F /  3.2 °C 35.6 °F /  2.0 °C 30.3in /  1026.3hPa Calm     92% 0in /  0.0mm 0.00 W/m2
22:05 37.6 °F /  3.1 °C 35.4 °F /  1.9 °C 30.3in /  1026.3hPa Calm     92% 0in /  0.0mm 0.00 W/m2
22:10 37.8 °F /  3.2 °C 35.6 °F /  2.0 °C 30.3in /  1026.3hPa Calm     92% 0in /  0.0mm 0.00 W/m2
22:15 37.6 °F /  3.1 °C 35.4 °F /  1.9 °C 30.3in /  1026.3hPa Calm     92% 0in /  0.0mm 0.00 W/m2
22:20 37.6 °F /  3.1 °C 35.4 °F /  1.9 °C 30.3in /  1026.3hPa Calm   1mph /  1.6km/h 92% 0in /  0.0mm 0.00 W/m2
22:25 37.6 °F /  3.1 °C 35.4 °F /  1.9 °C 30.3in /  1026.3hPa Calm     92% 0in /  0.0mm 0.00 W/m2
22:30 37.4 °F /  3.0 °C 35.2 °F /  1.8 °C 30.3in /  1026.3hPa Calm     92% 0in /  0.0mm 0.00 W/m2
22:35 37.2 °F /  2.9 °C 35.1 °F /  1.7 °C 30.3in /  1026.3hPa Calm     92% 0in /  0.0mm 0.00 W/m2
22:40 37.2 °F /  2.9 °C 35.1 °F /  1.7 °C 30.3in /  1026.3hPa Calm   1mph /  1.6km/h 92% 0in /  0.0mm 0.00 W/m2
22:45 37.2 °F /  2.9 °C 35.1 °F /  1.7 °C 30.3in /  1026.3hPa Calm     92% 0in /  0.0mm 0.00 W/m2
22:50 37.2 °F /  2.9 °C 35.1 °F /  1.7 °C 30.3in /  1026.0hPa Calm   1mph /  1.6km/h 92% 0in /  0.0mm 0.00 W/m2
22:55 37 °F /  2.8 °C 34.9 °F /  1.6 °C 30.3in /  1026.3hPa Calm     92% 0in /  0.0mm 0.00 W/m2
23:00 37 °F /  2.8 °C 34.9 °F /  1.6 °C 30.3in /  1026.3hPa Calm     92% 0in /  0.0mm 0.00 W/m2
23:05 37 °F /  2.8 °C 34.9 °F /  1.6 °C 30.3in /  1026.3hPa Calm     92% 0in /  0.0mm 0.00 W/m2
23:10 37 °F /  2.8 °C 34.9 °F /  1.6 °C 30.3in /  1026.3hPa Calm     92% 0in /  0.0mm 0.00 W/m2
23:15 36.9 °F /  2.7 °C 34.7 °F /  1.5 °C 30.3in /  1026.3hPa Calm     92% 0in /  0.0mm 0.00 W/m2
23:20 36.7 °F /  2.6 °C 34.9 °F /  1.6 °C 30.3in /  1026.3hPa Calm     93% 0in /  0.0mm 0.00 W/m2
23:25 36.7 °F /  2.6 °C 34.9 °F /  1.6 °C 30.3in /  1026.3hPa Calm     93% 0in /  0.0mm 0.00 W/m2
23:30 36.5 °F /  2.5 °C 34.7 °F /  1.5 °C 30.3in /  1026.3hPa Calm     93% 0in /  0.0mm 0.00 W/m2
23:35 36.3 °F /  2.4 °C 34.5 °F /  1.4 °C 30.3in /  1026.3hPa Calm     93% 0in /  0.0mm 0.00 W/m2
23:40 36.3 °F /  2.4 °C 34.5 °F /  1.4 °C 30.3in /  1026.3hPa Calm     93% 0in /  0.0mm 0.00 W/m2
23:45 36.1 °F /  2.3 °C 34.3 °F /  1.3 °C 30.3in /  1026.0hPa Calm     93% 0in /  0.0mm 0.00 W/m2
23:50 36.1 °F /  2.3 °C 34.3 °F /  1.3 °C 30.3in /  1026.0hPa Calm     93% 0in /  0.0mm 0.00 W/m2
23:55 36.1 °F /  2.3 °C 34.3 °F /  1.3 °C 30.3in /  1026.0hPa Calm     93% 0in /  0.0mm 0.00 W/m2